Time;durP1;ratioP1;P1;durP2;ratioP2;P2;SDS_P1;SDS_P2;PMS_P1;PMS_P2;Temp;Humidity;BMP_temperature;BMP_pressure;BME280_temperature;BME280_humidity;BME280_pressure;Samples;Min_cycle;Max_cycle;Signal;HPM_P1;HPM_P2
2021/12/06 00:01:06;;;;;;;43.60;25.83;;;;;;;6.15;97.95;93912.84;5072526;28;20484;-79
2021/12/06 00:03:43;;;;;;;60.40;33.00;;;;;;;6.04;98.44;93894.69;5072845;28;20440;-78
2021/12/06 00:06:11;;;;;;;54.67;29.40;;;;;;;6.08;98.66;93903.91;5053651;28;20966;-78
2021/12/06 00:08:37;;;;;;;50.00;31.60;;;;;;;6.14;98.59;93910.38;5072407;28;20802;-79
2021/12/06 00:11:08;;;;;;;67.10;36.90;;;;;;;6.15;98.26;93907.66;5072183;28;20444;-79
2021/12/06 00:13:38;;;;;;;59.17;31.60;;;;;;;6.15;97.39;93899.00;5072528;28;20448;-78
2021/12/06 00:16:09;;;;;;;62.47;32.77;;;;;;;6.04;96.58;93902.50;5071891;28;20460;-78
2021/12/06 00:18:36;;;;;;;53.30;33.23;;;;;;;5.92;97.95;93898.31;5072600;28;20432;-78
2021/12/06 00:21:04;;;;;;;50.77;31.70;;;;;;;5.69;97.92;93901.94;5072052;28;20954;-78
2021/12/06 00:23:31;;;;;;;48.53;30.87;;;;;;;5.72;98.91;93906.88;5072532;28;20444;-79
2021/12/06 00:25:58;;;;;;;49.97;28.63;;;;;;;5.17;99.53;93921.72;5072186;28;20448;-78
2021/12/06 00:28:26;;;;;;;46.37;28.30;;;;;;;5.35;99.96;93927.25;5072199;28;20445;-78
2021/12/06 00:30:56;;;;;;;55.50;31.20;;;;;;;5.43;99.54;93923.06;5072724;28;20452;-79
2021/12/06 00:33:23;;;;;;;53.03;32.15;;;;;;;5.53;98.95;93942.22;5052515;28;20520;-79
2021/12/06 00:35:50;;;;;;;55.77;33.10;;;;;;;5.55;98.01;93936.91;5072669;28;20578;-79
2021/12/06 00:38:17;;;;;;;59.53;32.37;;;;;;;5.54;98.67;93935.25;5072029;28;20447;-78
2021/12/06 00:40:48;;;;;;;55.93;33.03;;;;;;;5.51;98.73;93928.50;5071816;28;20852;-79
2021/12/06 00:43:15;;;;;;;52.40;31.87;;;;;;;5.57;99.33;93924.59;5036429;28;20425;-79
2021/12/06 00:45:43;;;;;;;63.70;32.43;;;;;;;5.65;99.56;93927.38;5072271;28;20503;-79
2021/12/06 00:48:11;;;;;;;54.37;32.30;;;;;;;5.69;98.59;93917.56;5071979;28;20444;-78
2021/12/06 00:50:42;;;;;;;59.33;33.07;;;;;;;5.74;98.19;93931.00;5071831;28;20443;-79
2021/12/06 00:53:09;;;;;;;58.57;38.20;;;;;;;5.70;98.74;93940.84;5071834;28;20448;-79
2021/12/06 00:55:37;;;;;;;63.27;36.07;;;;;;;5.71;98.43;93934.69;5036836;28;20441;-79
2021/12/06 00:58:04;;;;;;;70.70;37.23;;;;;;;5.73;99.30;93924.97;5053169;28;20439;-79
2021/12/06 01:00:35;;;;;;;69.07;39.20;;;;;;;5.75;99.38;93917.88;5071862;28;20480;-79
2021/12/06 01:03:02;;;;;;;67.93;37.60;;;;;;;5.84;100.00;93916.31;5072012;28;20522;-79
2021/12/06 01:05:31;;;;;;;62.17;34.03;;;;;;;5.85;100.00;93920.56;5071826;28;20456;-79
2021/12/06 01:07:58;;;;;;;63.20;37.73;;;;;;;5.85;100.00;93924.00;5036579;28;20445;-79
2021/12/06 01:10:27;;;;;;;79.03;40.60;;;;;;;5.88;100.00;93922.91;5071917;28;20463;-79
2021/12/06 01:12:54;;;;;;;67.67;35.93;;;;;;;5.90;100.00;93939.25;5072113;28;20453;-79
2021/12/06 01:15:21;;;;;;;63.87;37.20;;;;;;;6.00;100.00;93936.72;5071885;28;20437;-79
2021/12/06 01:17:48;;;;;;;64.33;37.83;;;;;;;6.00;100.00;93921.94;5071743;28;20458;-79
2021/12/06 01:20:22;;;;;;;69.67;36.40;;;;;;;5.77;100.00;93928.97;5071830;28;20480;-79
2021/12/06 01:22:55;;;;;;;53.17;32.40;;;;;;;4.89;100.00;93934.28;5071654;28;20448;-79
2021/12/06 01:25:31;;;;;;;52.93;32.00;;;;;;;5.21;100.00;93929.19;5071682;28;20440;-79
2021/12/06 01:28:17;;;;;;;60.03;32.70;;;;;;;5.38;100.00;93925.22;5072365;28;20482;-79
2021/12/06 01:30:56;;;;;;;51.13;30.20;;;;;;;5.54;100.00;93936.06;5075735;28;20456;-79
2021/12/06 01:34:02;;;;;;;46.40;25.93;;;;;;;5.68;100.00;93926.31;5075686;28;20470;-78
2021/12/06 01:39:17;;;;;;;44.00;27.40;;;;;;;5.81;100.00;93899.16;5075370;28;20438;-79
2021/12/06 01:41:50;;;;;;;48.33;28.37;;;;;;;5.87;100.00;93884.81;5075279;28;20567;-79
2021/12/06 01:44:19;;;;;;;50.27;27.10;;;;;;;5.91;100.00;93878.44;5074988;28;20437;-79
2021/12/06 01:46:49;;;;;;;42.30;24.70;;;;;;;5.99;100.00;93881.22;5074853;28;20488;-79
2021/12/06 01:49:18;;;;;;;42.17;27.63;;;;;;;6.08;100.00;93880.47;5075481;28;20447;-78
2021/12/06 01:51:47;;;;;;;39.40;23.87;;;;;;;6.11;100.00;93882.81;5056408;28;20966;-79
2021/12/06 01:54:17;;;;;;;39.10;23.77;;;;;;;6.18;99.72;93883.94;5075177;28;20448;-79
2021/12/06 01:56:45;;;;;;;45.10;24.63;;;;;;;6.19;98.60;93879.56;5075013;28;20444;-79
2021/12/06 01:59:13;;;;;;;39.80;26.70;;;;;;;6.21;97.92;93877.66;5074733;28;20444;-79
2021/12/06 02:01:41;;;;;;;41.23;26.20;;;;;;;6.21;97.44;93880.25;5074720;28;20480;-79
2021/12/06 02:04:08;;;;;;;52.57;27.60;;;;;;;5.97;96.44;93869.28;5074888;28;20487;-79
2021/12/06 02:06:37;;;;;;;37.60;24.90;;;;;;;5.90;97.16;93866.38;5075001;28;20488;-79
2021/12/06 02:09:05;;;;;;;45.90;25.93;;;;;;;5.93;97.01;93873.91;5074787;28;20447;-79
2021/12/06 02:11:36;;;;;;;44.90;25.53;;;;;;;5.97;96.91;93883.13;5075413;28;20444;-79
2021/12/06 02:14:09;;;;;;;46.23;25.80;;;;;;;5.98;97.20;93878.75;5074437;28;20436;-79
2021/12/06 02:16:42;;;;;;;38.53;24.60;;;;;;;5.98;96.82;93884.78;5074503;28;20441;-79
2021/12/06 02:19:11;;;;;;;42.70;25.03;;;;;;;5.99;96.62;93889.03;5074602;28;20836;-79
2021/12/06 02:21:42;;;;;;;42.23;24.57;;;;;;;5.99;96.34;93889.03;5074477;28;20488;-79
2021/12/06 02:24:10;;;;;;;50.70;28.00;;;;;;;5.99;97.66;93896.00;5074914;28;20440;-79
2021/12/06 02:26:39;;;;;;;52.07;30.00;;;;;;;6.00;98.08;93897.66;5074376;28;20918;-79
2021/12/06 02:29:06;;;;;;;50.73;28.93;;;;;;;6.02;98.12;93896.59;5074598;28;20439;-79
2021/12/06 02:31:34;;;;;;;39.70;23.03;;;;;;;6.02;98.12;93899.19;5074463;28;20450;-79
2021/12/06 02:34:01;;;;;;;46.07;22.40;;;;;;;6.05;97.52;93898.09;5074186;28;20441;-79
2021/12/06 02:36:28;;;;;;;32.10;21.73;;;;;;;6.08;96.88;93888.28;5074101;28;20436;-79
2021/12/06 02:38:57;;;;;;;37.17;21.93;;;;;;;6.09;96.18;93878.69;5073721;28;20451;-79
2021/12/06 02:41:25;;;;;;;30.40;18.80;;;;;;;6.12;95.45;93875.81;5074327;28;20533;-79
2021/12/06 02:43:53;;;;;;;31.90;20.00;;;;;;;6.09;95.00;93869.09;5073941;28;20444;-79
2021/12/06 02:46:21;;;;;;;30.60;18.27;;;;;;;6.08;95.29;93872.66;5073909;28;21039;-79
2021/12/06 02:48:48;;;;;;;34.80;21.97;;;;;;;6.09;95.78;93871.72;5073580;28;20942;-78
2021/12/06 02:51:16;;;;;;;33.80;20.50;;;;;;;6.07;96.28;93868.41;5055335;28;20464;-79
2021/12/06 02:53:44;;;;;;;29.03;22.23;;;;;;;6.10;96.60;93875.97;5073790;28;20959;-79
2021/12/06 02:56:30;;;;;;;33.57;20.67;;;;;;;6.13;96.20;93862.69;5054932;28;20450;-79
2021/12/06 02:58:58;;;;;;;38.60;21.83;;;;;;;6.15;96.46;93860.75;5073860;28;20451;-79
2021/12/06 03:01:32;;;;;;;40.40;22.20;;;;;;;6.14;96.58;93860.91;5073754;28;20480;-78
2021/12/06 03:04:01;;;;;;;22.23;15.50;;;;;;;6.11;98.59;93850.75;5073769;28;20440;-79
2021/12/06 03:06:29;;;;;;;34.43;22.67;;;;;;;6.16;99.23;93861.59;5073525;28;21139;-79
2021/12/06 03:09:04;;;;;;;34.80;20.30;;;;;;;6.18;100.00;93862.28;5073696;28;20440;-78
2021/12/06 03:11:36;;;;;;;31.73;20.33;;;;;;;6.01;100.00;93860.25;5073597;28;20560;-78
2021/12/06 03:14:05;;;;;;;35.53;21.70;;;;;;;6.03;99.94;93855.75;5073627;28;20436;-79
2021/12/06 03:16:32;;;;;;;33.97;22.23;;;;;;;5.96;99.57;93860.66;5054675;28;20479;-79
2021/12/06 03:19:00;;;;;;;42.30;21.17;;;;;;;5.87;99.93;93849.19;5073187;28;20448;-78
2021/12/06 03:21:28;;;;;;;36.17;22.63;;;;;;;5.96;100.00;93857.22;5073256;28;20480;-79
2021/12/06 03:23:57;;;;;;;38.13;22.47;;;;;;;5.99;99.61;93863.00;5073050;28;20448;-79
2021/12/06 03:26:27;;;;;;;33.23;20.70;;;;;;;6.01;99.60;93874.09;5073100;28;20456;-79
2021/12/06 03:28:56;;;;;;;35.00;22.90;;;;;;;5.95;99.25;93881.59;5073299;28;20440;-79
2021/12/06 03:31:25;;;;;;;35.00;22.67;;;;;;;5.95;99.03;93876.41;5072845;28;20807;-79
2021/12/06 03:33:55;;;;;;;35.20;22.90;;;;;;;6.00;99.57;93871.63;5073232;28;20971;-79
2021/12/06 03:36:24;;;;;;;38.17;23.30;;;;;;;6.11;99.53;93876.78;5073124;28;20935;-79
2021/12/06 03:38:52;;;;;;;35.03;23.10;;;;;;;6.18;99.67;93877.91;5072978;28;20452;-79
2021/12/06 03:41:21;;;;;;;32.77;21.97;;;;;;;6.27;98.99;93869.31;5072675;28;20484;-79
2021/12/06 03:43:48;;;;;;;37.07;22.00;;;;;;;6.24;98.13;93866.16;5037387;28;20432;-79
2021/12/06 03:46:19;;;;;;;39.57;23.57;;;;;;;6.06;99.47;93858.91;5073127;28;20816;-79
2021/12/06 03:48:46;;;;;;;37.47;22.80;;;;;;;5.84;100.00;93861.66;5072732;28;20677;-79
2021/12/06 03:51:13;;;;;;;32.87;20.93;;;;;;;5.98;100.00;93853.53;5072380;28;20456;-79
2021/12/06 03:53:40;;;;;;;40.77;21.73;;;;;;;6.03;100.00;93858.34;5037511;28;20443;-79
2021/12/06 03:56:08;;;;;;;34.10;21.97;;;;;;;6.10;100.00;93865.53;5072540;28;20448;-79
2021/12/06 03:58:35;;;;;;;35.20;22.03;;;;;;;6.19;100.00;93869.16;5053965;28;20448;-79
2021/12/06 04:01:04;;;;;;;32.90;22.80;;;;;;;6.24;100.00;93863.53;5072485;28;20484;-79
2021/12/06 04:03:35;;;;;;;32.27;20.90;;;;;;;6.32;100.00;93868.91;5072483;28;20445;-79
2021/12/06 04:06:03;;;;;;;38.40;23.10;;;;;;;6.37;100.00;93861.56;5072612;28;20456;-79
2021/12/06 04:08:30;;;;;;;37.37;22.50;;;;;;;6.39;99.49;93849.22;5072355;28;20447;-79
2021/12/06 04:10:57;;;;;;;37.93;23.27;;;;;;;6.43;99.29;93854.06;5072604;28;20448;-79
2021/12/06 04:13:24;;;;;;;34.47;22.60;;;;;;;6.46;98.95;93855.56;5036830;28;20950;-79
2021/12/06 04:15:51;;;;;;;41.33;25.37;;;;;;;6.17;99.24;93874.50;5072390;28;20795;-79
2021/12/06 04:18:18;;;;;;;41.87;22.73;;;;;;;6.30;98.81;93876.03;5072345;28;20802;-79
2021/12/06 04:20:47;;;;;;;39.30;22.33;;;;;;;6.32;98.69;93856.72;5072358;28;20483;-79
2021/12/06 04:23:14;;;;;;;36.80;20.77;;;;;;;6.32;98.37;93846.31;5072206;28;20475;-79
2021/12/06 04:25:41;;;;;;;34.07;21.00;;;;;;;6.34;98.83;93848.78;5072212;28;20445;-79
2021/12/06 04:28:13;;;;;;;33.57;23.10;;;;;;;6.36;98.68;93847.72;5053553;28;20451;-79
2021/12/06 04:30:40;;;;;;;35.73;22.90;;;;;;;6.39;98.66;93849.22;5072156;28;20540;-79
2021/12/06 04:33:07;;;;;;;35.43;23.20;;;;;;;6.38;97.76;93852.78;5072267;28;20445;-79
2021/12/06 04:35:37;;;;;;;39.03;22.93;;;;;;;6.01;98.91;93858.47;5053662;28;20448;-79
2021/12/06 04:38:06;;;;;;;31.93;20.97;;;;;;;6.05;100.00;93856.44;5072151;28;20459;-79
2021/12/06 04:40:33;;;;;;;33.43;21.70;;;;;;;6.06;100.00;93861.50;5072315;28;20440;-79
2021/12/06 04:43:00;;;;;;;35.00;21.17;;;;;;;6.13;100.00;93848.84;5071910;28;20503;-79
2021/12/06 04:45:28;;;;;;;44.37;23.67;;;;;;;6.15;100.00;93850.34;5071765;28;20479;-79
2021/12/06 04:47:55;;;;;;;41.37;23.33;;;;;;;6.12;100.00;93855.00;5072187;28;20437;-79
2021/12/06 04:50:25;;;;;;;33.60;21.80;;;;;;;6.11;100.00;93851.56;5036678;28;20445;-79
2021/12/06 04:52:52;;;;;;;53.80;35.67;;;;;;;6.13;100.00;93857.47;5071842;28;20452;-79
2021/12/06 04:55:27;;;;;;;57.53;34.03;;;;;;;6.12;100.00;93857.59;5071630;28;20441;-79
2021/12/06 04:57:54;;;;;;;54.27;33.80;;;;;;;6.13;100.00;93870.50;5071586;28;20450;-79
2021/12/06 05:00:26;;;;;;;63.77;39.20;;;;;;;6.17;100.00;93866.66;5071708;28;21158;-79
2021/12/06 05:02:54;;;;;;;55.70;35.20;;;;;;;6.12;100.00;93863.63;5074431;28;20926;-79
2021/12/06 05:05:26;;;;;;;51.83;35.27;;;;;;;6.19;100.00;93869.16;5056953;28;20432;-78
2021/12/06 05:07:56;;;;;;;48.30;32.17;;;;;;;6.23;100.00;93860.13;5076245;28;20531;-79
2021/12/06 05:10:25;;;;;;;52.73;32.37;;;;;;;6.27;100.00;93861.50;5075791;28;20444;-78
2021/12/06 05:12:52;;;;;;;59.57;38.00;;;;;;;6.27;100.00;93855.47;5075867;28;20448;-79
2021/12/06 05:15:19;;;;;;;61.87;38.43;;;;;;;6.26;99.98;93867.66;5057166;28;20455;-79
2021/12/06 05:17:46;;;;;;;64.80;40.27;;;;;;;6.31;100.00;93867.28;5075911;28;20510;-79
2021/12/06 05:20:15;;;;;;;67.27;42.80;;;;;;;6.18;99.46;93873.53;5076071;28;20922;-79
2021/12/06 05:22:43;;;;;;;71.47;41.30;;;;;;;6.11;99.51;93885.41;5075807;28;20855;-79
2021/12/06 05:25:11;;;;;;;59.43;35.00;;;;;;;5.96;100.00;93878.88;5075652;28;20445;-79
2021/12/06 05:27:39;;;;;;;62.73;30.33;;;;;;;5.94;100.00;93890.38;5075791;28;20602;-79
2021/12/06 05:30:09;;;;;;;59.77;33.47;;;;;;;5.94;100.00;93888.59;5075208;28;20454;-79
2021/12/06 05:32:37;;;;;;;58.90;32.60;;;;;;;5.96;100.00;93885.84;5075256;28;20927;-78
2021/12/06 05:35:07;;;;;;;56.90;32.10;;;;;;;5.98;100.00;93886.56;5075671;28;20537;-79
2021/12/06 05:37:36;;;;;;;59.60;33.60;;;;;;;6.02;100.00;93886.16;5075352;28;20493;-79
2021/12/06 05:40:06;;;;;;;57.43;31.80;;;;;;;6.07;100.00;93878.81;5075203;28;20440;-79
2021/12/06 05:42:33;;;;;;;44.10;28.90;;;;;;;6.13;100.00;93877.47;5075172;28;20480;-79
2021/12/06 05:45:01;;;;;;;43.40;28.83;;;;;;;6.18;100.00;93877.91;5075111;28;20456;-79
2021/12/06 05:47:29;;;;;;;53.30;31.40;;;;;;;5.79;100.00;93874.22;5074918;28;20923;-79
2021/12/06 05:49:55;;;;;;;40.83;23.10;;;;;;;5.92;100.00;93867.06;5074886;28;20919;-79
2021/12/06 05:52:22;;;;;;;57.30;35.47;;;;;;;5.86;100.00;93877.97;5074911;28;20943;-79
2021/12/06 05:54:49;;;;;;;45.97;27.63;;;;;;;5.89;100.00;93877.69;5075194;28;20441;-79
2021/12/06 05:57:17;;;;;;;54.13;33.07;;;;;;;5.75;100.00;93876.22;5075167;28;20444;-79
2021/12/06 05:59:45;;;;;;;41.70;25.47;;;;;;;5.79;100.00;93871.63;5074823;28;20444;-79
2021/12/06 06:02:14;;;;;;;45.73;25.77;;;;;;;5.85;100.00;93863.28;5074950;28;20481;-79
2021/12/06 06:04:41;;;;;;;39.60;25.07;;;;;;;5.83;100.00;93865.19;5074986;28;20436;-78
2021/12/06 06:07:08;;;;;;;42.90;24.10;;;;;;;5.87;100.00;93869.19;5074714;28;20445;-79
2021/12/06 06:09:35;;;;;;;36.27;20.70;;;;;;;5.96;100.00;93878.03;5074735;28;20439;-79
2021/12/06 06:12:04;;;;;;;26.47;16.40;;;;;;;6.09;100.00;93881.31;5074701;28;20432;-79
2021/12/06 06:14:31;;;;;;;18.00;13.10;;;;;;;6.07;100.00;93871.00;5074094;28;20447;-78
2021/12/06 06:17:07;;;;;;;23.27;13.27;;;;;;;6.07;100.00;93860.59;5074817;28;20452;-79
2021/12/06 06:19:36;;;;;;;16.73;11.20;;;;;;;6.19;100.00;93843.91;5074611;28;20444;-78
2021/12/06 06:22:04;;;;;;;14.90;9.67;;;;;;;6.25;100.00;93857.38;5074793;28;20507;-78
2021/12/06 06:24:30;;;;;;;16.43;10.73;;;;;;;6.33;100.00;93854.94;5074939;28;20447;-79
2021/12/06 06:26:57;;;;;;;17.90;10.53;;;;;;;6.47;100.00;93857.22;5074520;28;20448;-79
2021/12/06 06:29:24;;;;;;;14.57;10.83;;;;;;;6.50;100.00;93877.78;5074335;28;20428;-79
2021/12/06 06:31:51;;;;;;;19.03;13.23;;;;;;;6.58;100.00;93890.16;5074652;28;20800;-79
2021/12/06 06:34:18;;;;;;;17.20;13.10;;;;;;;6.82;100.00;93898.50;5074252;28;20455;-79
2021/12/06 06:36:47;;;;;;;18.50;12.93;;;;;;;7.01;100.00;93897.75;5074504;28;20935;-79
2021/12/06 06:39:14;;;;;;;15.30;11.00;;;;;;;7.09;100.00;93897.91;5074308;28;20935;-79
2021/12/06 06:41:42;;;;;;;10.43;7.90;;;;;;;6.99;100.00;93897.88;5074010;28;21053;-79
2021/12/06 06:44:09;;;;;;;13.67;9.73;;;;;;;6.78;100.00;93900.56;5074232;28;20468;-79
2021/12/06 06:46:35;;;;;;;13.10;10.10;;;;;;;6.96;100.00;93899.94;5073843;28;20476;-79
2021/12/06 06:49:03;;;;;;;12.37;9.30;;;;;;;7.17;100.00;93898.03;5074002;28;20450;-79
2021/12/06 06:51:30;;;;;;;14.83;9.70;;;;;;;7.27;100.00;93896.31;5073977;28;20475;-79
2021/12/06 06:53:58;;;;;;;21.00;12.90;;;;;;;7.47;100.00;93903.19;5074383;28;20452;-79
2021/12/06 06:56:25;;;;;;;17.03;12.20;;;;;;;7.49;100.00;93902.22;5073944;28;20441;-79
2021/12/06 06:58:53;;;;;;;11.47;9.10;;;;;;;7.55;100.00;93907.75;5073819;28;20784;-79
2021/12/06 07:01:20;;;;;;;17.13;11.87;;;;;;;7.72;100.00;93914.88;5073574;28;20445;-79
2021/12/06 07:03:49;;;;;;;30.30;20.53;;;;;;;7.79;100.00;93920.38;5073724;28;20500;-79
2021/12/06 07:06:16;;;;;;;30.03;20.80;;;;;;;7.81;100.00;93917.66;5073625;28;20442;-79
2021/12/06 07:08:43;;;;;;;29.70;20.87;;;;;;;7.87;100.00;93923.16;5074080;28;20507;-79
2021/12/06 07:11:13;;;;;;;37.20;24.77;;;;;;;7.94;100.00;93924.25;5073943;28;20441;-79
2021/12/06 07:13:40;;;;;;;102.27;51.33;;;;;;;7.99;100.00;93903.75;5073371;28;20931;-79
2021/12/06 07:16:08;;;;;;;84.83;46.00;;;;;;;8.06;100.00;93902.22;5038229;28;20443;-79
2021/12/06 07:18:36;;;;;;;35.57;22.97;;;;;;;8.08;100.00;93895.06;5073472;28;20476;-79
2021/12/06 07:21:03;;;;;;;39.80;25.87;;;;;;;8.13;99.73;93897.28;5073647;28;20446;-79
2021/12/06 07:23:30;;;;;;;51.63;31.23;;;;;;;8.23;100.00;93908.53;5073146;28;20668;-78
2021/12/06 07:25:57;;;;;;;39.00;21.60;;;;;;;8.29;99.33;93904.53;5072085;28;20446;-79
2021/12/06 07:28:25;;;;;;;31.53;22.07;;;;;;;8.36;98.90;93897.78;5073178;28;20446;-79
2021/12/06 07:30:52;;;;;;;29.57;19.47;;;;;;;8.45;99.51;93896.97;5073038;28;20453;-79
2021/12/06 07:33:19;;;;;;;30.00;18.63;;;;;;;8.50;99.23;93899.97;5073456;28;20522;-79
2021/12/06 07:35:46;;;;;;;19.63;13.83;;;;;;;8.48;98.23;93907.16;5073251;28;20449;-79
2021/12/06 07:38:13;;;;;;;20.23;14.13;;;;;;;8.58;97.70;93910.53;5037712;28;20445;-79
2021/12/06 07:40:40;;;;;;;18.73;14.00;;;;;;;8.69;97.06;93910.38;5073192;28;20457;-79
2021/12/06 07:43:07;;;;;;;14.90;12.10;;;;;;;8.75;96.91;93898.53;5072780;28;20482;-79
2021/12/06 07:45:36;;;;;;;14.10;10.27;;;;;;;8.75;96.94;93893.28;5054035;28;20477;-79
2021/12/06 07:48:03;;;;;;;17.20;11.50;;;;;;;8.67;96.56;93893.16;5072994;28;20445;-79
2021/12/06 07:50:30;;;;;;;31.30;18.67;;;;;;;8.69;96.62;93906.94;5073085;28;20444;-79
2021/12/06 07:52:57;;;;;;;24.40;15.27;;;;;;;8.65;95.59;93913.41;5073055;28;20441;-79
2021/12/06 07:55:30;;;;;;;19.33;12.37;;;;;;;8.59;95.74;93914.81;5073136;28;20448;-79
2021/12/06 07:57:58;;;;;;;16.20;11.80;;;;;;;8.63;96.41;93900.47;5072809;28;20471;-79
2021/12/06 08:00:26;;;;;;;17.23;12.73;;;;;;;8.59;95.99;93896.50;5072811;28;20472;-79
2021/12/06 08:02:55;;;;;;;13.27;10.60;;;;;;;8.59;96.37;93899.13;5072629;28;20489;-79
2021/12/06 08:05:33;;;;;;;12.07;9.73;;;;;;;8.56;96.54;93909.03;5072841;28;20501;-79
2021/12/06 08:08:03;;;;;;;17.83;12.10;;;;;;;8.48;95.96;93901.91;5072509;28;20448;-79
2021/12/06 08:10:31;;;;;;;15.60;11.37;;;;;;;8.42;95.73;93917.34;5053996;28;20988;-79
2021/12/06 08:12:59;;;;;;;20.70;15.07;;;;;;;8.31;96.45;93906.03;5072444;28;20447;-78
2021/12/06 08:15:26;;;;;;;19.23;14.30;;;;;;;8.35;96.82;93915.28;5072222;28;20442;-79
2021/12/06 08:17:55;;;;;;;18.03;14.43;;;;;;;8.38;96.68;93908.94;5072148;28;20804;-79
2021/12/06 08:20:21;;;;;;;15.13;11.43;;;;;;;8.44;97.94;93908.41;5072094;28;20793;-79
2021/12/06 08:22:48;;;;;;;22.33;14.90;;;;;;;8.54;98.00;93921.44;5072191;28;20843;-79
2021/12/06 08:25:17;;;;;;;13.73;9.67;;;;;;;8.62;97.63;93914.53;5072165;28;20441;-79
2021/12/06 08:27:44;;;;;;;11.57;8.97;;;;;;;8.72;97.58;93918.91;5072252;28;20457;-79
2021/12/06 08:30:14;;;;;;;10.57;8.93;;;;;;;8.82;96.50;93904.81;5072098;28;20442;-79
2021/12/06 08:32:41;;;;;;;11.83;7.70;;;;;;;8.91;95.96;93901.34;5072260;28;20446;-79
2021/12/06 08:35:10;;;;;;;15.97;8.87;;;;;;;9.02;94.81;93889.88;5072475;28;20439;-79
2021/12/06 08:37:37;;;;;;;12.57;10.00;;;;;;;9.06;95.10;93896.47;5071626;28;20840;-79
2021/12/06 08:40:05;;;;;;;14.13;10.70;;;;;;;9.02;95.06;93884.63;5071962;28;20895;-79
2021/12/06 08:42:33;;;;;;;13.33;10.13;;;;;;;9.12;95.25;93880.16;5072535;28;20481;-79
2021/12/06 08:44:59;;;;;;;8.33;6.80;;;;;;;9.11;93.29;93885.56;5053025;28;20459;-79
2021/12/06 08:47:28;;;;;;;7.50;5.70;;;;;;;8.66;92.17;93884.50;5071824;28;20447;-79
2021/12/06 08:49:55;;;;;;;8.70;6.53;;;;;;;8.65;94.00;93875.00;5071906;28;20451;-79
2021/12/06 08:52:23;;;;;;;8.40;5.77;;;;;;;8.85;94.08;93877.56;5071630;28;20484;-79
2021/12/06 08:54:50;;;;;;;9.73;5.90;;;;;;;8.79;92.81;93888.59;5072044;28;20458;-79
2021/12/06 08:57:17;;;;;;;10.07;6.37;;;;;;;8.96;93.20;93880.81;5071886;28;20788;-79
2021/12/06 08:59:45;;;;;;;16.27;9.43;;;;;;;9.08;93.68;93878.00;5036799;28;20445;-79
2021/12/06 09:02:12;;;;;;;12.10;8.57;;;;;;;9.15;93.58;93879.06;5072162;28;20480;-79
2021/12/06 09:04:39;;;;;;;13.40;9.50;;;;;;;9.28;93.46;93877.75;5072033;28;20443;-79
2021/12/06 09:07:11;;;;;;;12.37;10.00;;;;;;;9.52;93.16;93881.56;5072304;28;20448;-79
2021/12/06 09:09:46;;;;;;;16.07;11.47;;;;;;;9.72;93.02;93879.66;5071878;28;20447;-79
2021/12/06 09:12:17;;;;;;;17.05;13.65;;;;;;;10.06;92.87;93874.53;5052469;28;20442;-79
2021/12/06 09:14:44;;;;;;;15.07;11.80;;;;;;;10.21;91.24;93873.88;5071761;28;20214;-79
2021/12/06 09:17:12;;;;;;;14.70;10.53;;;;;;;10.20;88.72;93877.47;5071558;28;20448;-79
2021/12/06 09:19:39;;;;;;;14.00;10.17;;;;;;;10.29;86.90;93865.22;5071994;28;20799;-79
2021/12/06 09:22:06;;;;;;;11.60;9.33;;;;;;;10.32;86.35;93870.16;5071975;28;20451;-79
2021/12/06 09:24:33;;;;;;;9.80;7.90;;;;;;;10.38;87.71;93874.78;5071910;28;20452;-79
2021/12/06 09:27:02;;;;;;;10.60;8.80;;;;;;;10.45;87.34;93875.03;5071578;28;20444;-79
2021/12/06 09:29:32;;;;;;;11.40;8.10;;;;;;;10.57;86.89;93846.72;5071376;28;20436;-79
2021/12/06 09:31:59;;;;;;;10.13;7.70;;;;;;;10.59;85.64;93829.03;5071463;28;20505;-79
2021/12/06 09:34:27;;;;;;;8.40;6.47;;;;;;;10.63;84.81;93836.41;5071454;28;20813;-78
2021/12/06 09:36:54;;;;;;;9.80;7.13;;;;;;;10.69;85.60;93845.47;5071527;28;20832;-78
2021/12/06 09:39:22;;;;;;;11.97;7.50;;;;;;;10.76;86.01;93847.31;5071507;28;20443;-79
2021/12/06 09:41:49;;;;;;;8.67;6.93;;;;;;;10.80;84.50;93847.84;5071664;28;20481;-79
2021/12/06 09:44:19;;;;;;;8.10;6.97;;;;;;;10.75;84.67;93855.34;5071401;28;20479;-79
2021/12/06 09:46:47;;;;;;;9.97;7.17;;;;;;;10.74;83.46;93864.22;5071605;28;20814;-79
2021/12/06 09:49:20;;;;;;;10.27;7.27;;;;;;;10.53;83.33;93856.72;5073293;28;20455;-79
2021/12/06 09:51:51;;;;;;;10.90;8.07;;;;;;;10.51;83.64;93866.53;5075017;28;20440;-79
2021/12/06 09:54:19;;;;;;;10.37;6.80;;;;;;;10.61;84.53;93837.56;5075111;28;20459;-79
2021/12/06 09:56:47;;;;;;;15.00;10.10;;;;;;;10.70;84.93;93828.78;5074711;28;20444;-79
2021/12/06 09:59:18;;;;;;;11.73;9.70;;;;;;;10.71;84.64;93822.53;5074887;28;20870;-79
2021/12/06 10:01:50;;;;;;;15.10;9.90;;;;;;;10.77;84.45;93840.28;5074966;28;20972;-79
2021/12/06 10:04:19;;;;;;;13.60;9.47;;;;;;;10.84;85.15;93833.41;5075188;28;20468;-79
2021/12/06 10:06:47;;;;;;;12.07;10.33;;;;;;;10.94;86.23;93820.16;5074910;28;20444;-79
2021/12/06 10:09:15;;;;;;;15.03;11.10;;;;;;;10.94;85.95;93815.72;5074533;28;20444;-79
2021/12/06 10:11:42;;;;;;;22.47;14.40;;;;;;;10.95;86.34;93804.25;5074748;28;20440;-79
2021/12/06 10:14:10;;;;;;;23.80;15.23;;;;;;;10.94;84.07;93802.59;5074799;28;20837;-79
2021/12/06 10:16:39;;;;;;;21.60;14.30;;;;;;;10.90;84.39;93790.78;5074623;28;20447;-79
2021/12/06 10:19:07;;;;;;;16.37;11.57;;;;;;;10.85;84.90;93786.00;5074552;28;20437;-79
2021/12/06 10:21:35;;;;;;;19.23;12.37;;;;;;;10.83;83.72;93780.09;5074529;28;20919;-79
2021/12/06 10:24:02;;;;;;;20.53;13.53;;;;;;;10.83;83.85;93771.41;5074882;28;20494;-79
2021/12/06 10:26:32;;;;;;;12.70;9.23;;;;;;;10.72;84.95;93754.16;5074708;28;20444;-79
2021/12/06 10:29:02;;;;;;;15.40;9.20;;;;;;;10.75;85.40;93750.41;5074364;28;20444;-79
2021/12/06 10:31:32;;;;;;;17.90;10.40;;;;;;;10.75;85.48;93766.97;5074339;28;20440;-79
2021/12/06 10:34:00;;;;;;;15.50;11.50;;;;;;;10.53;86.54;93762.28;5075000;28;20958;-79
2021/12/06 10:36:28;;;;;;;26.60;17.13;;;;;;;10.43;87.22;93761.59;5074428;28;20449;-79
2021/12/06 10:39:01;;;;;;;23.00;14.23;;;;;;;10.54;87.71;93762.13;5055456;28;20437;-79
2021/12/06 10:41:29;;;;;;;19.77;12.37;;;;;;;10.36;87.17;93761.38;5074313;28;20949;-79
2021/12/06 10:43:59;;;;;;;13.07;9.00;;;;;;;10.41;87.21;93750.44;5074094;28;20488;-79
2021/12/06 10:46:28;;;;;;;11.63;9.53;;;;;;;10.45;87.72;93733.41;5074232;28;20479;-79
2021/12/06 10:48:58;;;;;;;9.00;7.30;;;;;;;10.36;87.97;93727.28;5073732;28;20445;-79
2021/12/06 10:51:27;;;;;;;9.53;6.70;;;;;;;10.33;87.26;93734.66;5073831;28;20441;-79
2021/12/06 10:54:01;;;;;;;13.10;10.60;;;;;;;10.43;87.22;93730.94;5074355;28;20463;-79
2021/12/06 10:56:38;;;;;;;15.40;9.57;;;;;;;10.53;87.11;93736.06;5074065;28;20451;-79
2021/12/06 10:59:11;;;;;;;8.93;7.27;;;;;;;10.64;86.24;93742.81;5073759;28;20856;-79
2021/12/06 11:01:38;;;;;;;11.80;8.57;;;;;;;10.64;86.05;93742.81;5073800;28;20440;-79
2021/12/06 11:04:07;;;;;;;22.07;9.90;;;;;;;10.58;85.49;93748.69;5073632;28;20492;-79
2021/12/06 11:06:42;;;;;;;15.93;11.40;;;;;;;10.67;86.10;93750.34;5073821;28;20814;-79
2021/12/06 11:09:11;;;;;;;11.37;8.60;;;;;;;10.65;86.09;93755.75;5074169;28;20534;-79
2021/12/06 11:11:40;;;;;;;12.27;7.60;;;;;;;10.66;85.54;93756.56;5073568;28;20444;-79
2021/12/06 11:14:11;;;;;;;19.63;12.90;;;;;;;10.64;85.43;93753.28;5073943;28;20527;-79
2021/12/06 11:16:40;;;;;;;13.10;7.57;;;;;;;10.68;86.25;93754.63;5073907;28;20440;-79
2021/12/06 11:19:09;;;;;;;15.13;9.87;;;;;;;10.71;85.54;93756.94;5073337;28;20443;-79
2021/12/06 11:21:42;;;;;;;14.67;10.43;;;;;;;10.65;85.27;93754.94;5073554;28;20445;-79
2021/12/06 11:24:21;;;;;;;17.57;12.93;;;;;;;10.72;85.62;93759.41;5073463;28;20516;-79
2021/12/06 11:26:54;;;;;;;17.20;11.93;;;;;;;10.77;86.16;93751.06;5073394;28;20539;-79
2021/12/06 11:29:24;;;;;;;18.20;10.37;;;;;;;10.69;85.39;93737.91;5073008;28;20451;-78
2021/12/06 11:31:56;;;;;;;15.70;10.37;;;;;;;10.69;84.64;93756.25;5073346;28;20942;-79